Latest Weather Observations for Gove Airport

IDD60801

Issued at 8:05 pm CST Wednesday 16 April 2014 (issued every 30 minutes, with the page automatically refreshed every 10 minutes)

About weather observations | Map of weather stations | Latest weather observations for NT | Other Formats
Station Details ID: 014508 Name: GOVE AIRPORT Lat: -12.27 Lon: 136.82 Height: 51.6 m
Data from the previous 72 hours. | See also: Recent months at Gove Airport
Date/Time
CST
Temp
°C
App
Temp
°C
Dew
Point
Rel
Hum
%
Delta-T
°C
Wind Press
QNH
hPa
Press
MSL
hPa
Rain
since 9 am
mm
Dir
 
Spd
km/h
Gust
km/h
Spd
kts
Gust
kts
16/08:00pm 25.5 30.1 21.8 80 2.5 SSE 0 6 0 3 1010.4 - 0.0
16/07:30pm 26.0 29.2 21.7 77 2.9 SSE 7 9 4 5 1010.1 - 0.0
16/07:00pm 26.5 29.8 21.9 76 3.1 SE 7 9 4 5 1009.6 - 0.0
16/06:30pm 27.4 30.6 21.7 71 3.8 SSE 7 9 4 5 1009.4 - 0.0
16/06:00pm 28.4 31.1 21.4 66 4.7 SSE 9 13 5 7 1009.1 1008.7 0.0
16/05:30pm 29.7 31.7 20.7 58 6.0 SSE 11 19 6 10 1008.9 - 0.0
16/05:00pm 30.5 31.4 20.1 53 6.9 SSE 15 22 8 12 1008.6 - 0.0
16/04:30pm 30.8 31.9 19.7 51 7.3 SE 13 17 7 9 1008.2 - 0.0
16/04:00pm 31.4 32.1 19.6 49 7.8 ESE 15 20 8 11 1008.2 - 0.0
16/03:30pm 31.6 32.9 20.2 50 7.6 E 13 20 7 11 1008.2 - 0.0
16/03:00pm 31.3 31.5 19.4 49 7.8 E 17 24 9 13 1008.3 1008.0 0.0
16/02:30pm 31.7 32.9 20.6 51 7.4 E 15 22 8 12 1008.6 - 0.0
16/02:00pm 32.0 32.8 20.6 51 7.6 E 17 24 9 13 1009.0 - 0.0
16/01:30pm 31.4 32.4 21.0 54 7.0 E 17 24 9 13 1009.4 - 0.0
16/01:00pm 31.2 32.6 21.1 55 6.8 E 15 24 8 13 1009.6 - 0.0
16/12:30pm 31.6 32.8 20.7 52 7.3 E 15 24 8 13 1009.8 - 0.0
16/12:00pm 31.9 33.4 20.5 51 7.6 E 13 22 7 12 1010.1 1009.7 0.0
16/11:30am 31.2 33.4 20.4 52 7.2 E 9 22 5 12 1010.6 - 0.0
16/11:00am 31.6 33.3 20.1 50 7.6 SE 11 20 6 11 1010.9 - 0.0
16/10:30am 31.4 33.2 19.5 49 7.8 NE 9 15 5 8 1011.3 - 0.0
16/10:00am 31.1 33.0 20.6 53 7.0 ENE 11 19 6 10 1011.4 - 0.0
16/09:30am 30.7 33.9 21.2 57 6.4 E 6 13 3 7 1011.4 - 0.0
16/09:00am 30.2 32.7 21.1 58 6.1 E 9 13 5 7 1011.1 1010.7 0.0
16/08:00am 28.7 33.6 22.4 68 4.3 CALM 0 7 0 4 1010.9 - 0.0
16/07:30am 24.6 29.9 23.0 91 1.1 CALM 0 0 0 0 1010.8 - 0.0
16/07:00am 22.4 26.9 21.6 95 0.5 CALM 0 0 0 0 1010.6 - 0.0
16/06:30am 22.2 26.6 21.4 95 0.5 CALM 0 0 0 0 1010.3 - 0.0
16/06:00am 22.3 26.8 21.5 95 0.5 CALM 0 0 0 0 1010.0 1009.6 0.0
16/05:30am 22.5 27.0 21.6 95 0.6 CALM 0 0 0 0 1009.6 - 0.0
16/05:00am 22.8 27.5 21.9 95 0.6 CALM 0 0 0 0 1009.6 - 0.0
16/04:30am 23.3 28.2 22.3 94 0.7 CALM 0 2 0 1 1009.6 - 0.0
16/04:00am 23.7 28.7 22.5 93 0.8 CALM 0 0 0 0 1009.6 - 0.0
16/03:30am 24.6 29.9 23.0 91 1.1 CALM 0 0 0 0 1009.6 - 0.0
16/03:00am 24.5 29.6 22.7 90 1.2 CALM 0 0 0 0 1009.6 1009.2 0.0
16/02:30am 24.1 29.1 22.5 91 1.1 CALM 0 0 0 0 1009.7 - 0.0
16/02:00am 23.3 28.0 21.9 92 0.9 CALM 0 0 0 0 1009.8 - 0.0
16/01:30am 23.1 27.8 21.9 93 0.8 CALM 0 0 0 0 1010.1 - 0.0
16/01:00am 23.3 28.1 22.1 93 0.8 S 0 0 0 0 1010.5 - 0.0
16/12:30am 23.4 28.2 22.2 93 0.8 CALM 0 0 0 0 1010.7 - 0.0
16/12:00am 23.9 28.8 22.3 91 1.1 CALM 0 0 0 0 1010.9 1010.5 0.0
 
Date/Time
CST
Temp
°C
App
Temp
°C
Dew
Point
Rel
Hum
%
Delta-T
°C
Wind Press
QNH
hPa
Press
MSL
hPa
Rain
since 9 am
mm
Dir
 
Spd
km/h
Gust
km/h
Spd
kts
Gust
kts
15/11:30pm 24.2 29.1 22.3 89 1.3 CALM 0 0 0 0 1011.1 - 0.0
15/11:00pm 24.2 29.1 22.3 89 1.3 CALM 0 0 0 0 1011.1 - 0.0
15/10:30pm 24.5 29.4 22.4 88 1.4 CALM 0 0 0 0 1011.3 - 0.0
15/10:00pm 24.2 29.0 22.1 88 1.4 CALM 0 0 0 0 1011.3 - 0.0
15/09:30pm 24.5 29.4 22.3 87 1.5 CALM 0 0 0 0 1011.3 - 0.0
15/09:00pm 25.2 30.2 22.5 85 1.8 CALM 0 0 0 0 1011.2 1010.8 0.0
15/08:30pm 25.5 30.4 22.4 83 2.1 CALM 0 6 0 3 1011.0 - 0.0
15/08:00pm 26.1 29.8 22.2 79 2.6 SE 6 6 3 3 1010.8 - 0.0
15/07:30pm 26.8 31.3 22.2 76 3.1 S 2 6 1 3 1010.3 - 0.0
15/07:00pm 27.4 30.8 21.7 71 3.8 S 6 7 3 4 1009.8 - 0.0
15/06:30pm 28.0 31.2 21.6 68 4.3 SSE 7 9 4 5 1009.4 - 0.0
15/06:00pm 29.0 32.0 21.2 62 5.2 SSE 7 11 4 6 1009.2 1008.8 0.0
15/05:30pm 29.9 31.7 20.4 56 6.3 SSE 11 15 6 8 1008.8 - 0.0
15/05:00pm 31.2 32.3 19.7 50 7.6 SSE 13 17 7 9 1008.6 - 0.0
15/04:30pm 31.2 31.8 18.6 47 8.2 S 13 17 7 9 1008.6 - 0.0
15/04:00pm 31.1 32.2 19.7 50 7.5 SSE 13 17 7 9 1008.5 - 0.0
15/03:30pm 31.6 31.4 18.5 45 8.5 ESE 17 20 9 11 1008.6 - 0.0
15/03:00pm 32.3 33.2 19.2 46 8.6 SSE 13 20 7 11 1008.9 1008.5 0.0
15/02:30pm 32.9 33.3 18.1 41 9.6 SSE 13 17 7 9 1009.2 - 0.0
15/02:00pm 31.3 32.1 19.1 48 8.0 SSE 13 24 7 13 1009.4 - 0.0
15/01:30pm 33.1 32.6 17.8 40 9.9 ESE 17 24 9 13 1009.7 - 0.0
15/01:00pm 32.0 33.5 20.5 50 7.7 ENE 13 19 7 10 1009.9 - 0.0
15/12:30pm 31.2 33.6 21.6 56 6.5 ESE 11 15 6 8 1010.4 - 0.0
15/12:00pm 32.1 33.4 19.3 46 8.4 S 11 17 6 9 1010.7 1010.3 0.0
15/11:30am 30.6 33.8 21.7 59 6.0 S 7 13 4 7 1011.2 - 0.0
15/11:00am 31.9 35.0 22.9 59 6.2 SE 11 17 6 9 1011.7 - 0.0
15/10:30am 30.7 33.8 22.8 62 5.4 ENE 11 15 6 8 1012.1 - 0.0
15/10:00am 30.4 34.0 23.1 65 5.0 ENE 9 13 5 7 1012.1 - 0.0
15/09:30am 29.9 33.5 23.1 67 4.7 ENE 9 13 5 7 1012.0 - 0.0
15/09:00am 30.1 33.5 23.3 67 4.7 E 11 15 6 8 1011.9 1011.5 0.0
15/08:30am 29.5 32.4 23.2 69 4.3 ESE 13 17 7 9 1011.4 - 0.0
15/08:00am 28.3 32.8 24.0 77 3.0 S 7 9 4 5 1011.1 - 0.0
15/07:30am 26.9 32.2 23.1 80 2.6 CALM 0 0 0 0 1011.0 - 0.0
15/07:00am 25.8 31.5 23.8 89 1.4 CALM 0 0 0 0 1010.6 - 0.0
15/06:30am 25.7 31.4 23.8 89 1.3 CALM 0 0 0 0 1010.4 - 0.0
15/06:00am 25.7 30.7 23.8 89 1.3 S 4 6 2 3 1010.1 1009.7 0.0
15/05:30am 25.9 31.7 23.9 89 1.4 CALM 0 7 0 4 1009.9 - 0.0
15/05:00am 26.1 30.6 23.6 86 1.7 SSW 6 9 3 5 1009.8 - 0.0
15/04:30am 26.0 31.9 24.1 89 1.3 CALM 0 0 0 0 1009.6 - 0.0
15/04:00am 25.9 31.9 24.2 90 1.2 CALM 0 0 0 0 1009.4 - 0.0
15/03:30am 26.0 30.7 24.0 89 1.4 SSW 6 7 3 4 1009.4 - 0.0
15/03:00am 26.1 31.7 23.5 85 1.8 CALM 0 0 0 0 1009.5 1009.1 0.0
15/02:30am 25.9 31.7 24.0 89 1.3 CALM 0 0 0 0 1009.6 - 0.0
15/02:00am 25.8 31.6 23.9 89 1.3 CALM 0 0 0 0 1009.6 - 0.0
15/01:30am 25.7 30.3 23.8 89 1.3 SSW 6 7 3 4 1009.8 - 0.0
15/01:00am 25.4 29.8 23.5 89 1.3 SSW 6 9 3 5 1010.0 - 0.0
15/12:30am 24.8 30.4 23.5 92 0.9 CALM 0 0 0 0 1010.1 - 0.0
15/12:00am 25.4 31.0 23.6 90 1.2 CALM 0 0 0 0 1010.4 1010.0 0.0
 
Date/Time
CST
Temp
°C
App
Temp
°C
Dew
Point
Rel
Hum
%
Delta-T
°C
Wind Press
QNH
hPa
Press
MSL
hPa
Rain
since 9 am
mm
Dir
 
Spd
km/h
Gust
km/h
Spd
kts
Gust
kts
14/11:30pm 25.8 30.1 23.6 88 1.5 SW 7 9 4 5 1010.4 - 0.0
14/11:00pm 25.8 31.8 24.2 91 1.1 CALM 0 0 0 0 1010.6 - 0.0
14/10:30pm 26.1 31.9 23.9 88 1.5 CALM 0 0 0 0 1010.8 - 0.0
14/10:00pm 26.0 31.5 23.4 85 1.8 CALM 0 0 0 0 1010.9 - 0.0
14/09:30pm 25.9 31.2 23.1 84 1.9 CALM 0 0 0 0 1011.0 - 0.0
14/09:00pm 26.0 31.4 23.2 84 1.9 CALM 0 0 0 0 1010.8 1010.4 0.0
14/08:30pm 26.4 31.8 23.3 83 2.1 CALM 0 0 0 0 1010.6 - 0.0
14/08:00pm 26.5 32.1 23.6 84 2.0 CALM 0 0 0 0 1010.3 - 0.0
14/07:30pm 27.2 33.0 24.0 83 2.2 CALM 0 0 0 0 1009.8 - 0.0
14/07:00pm 27.9 33.6 23.7 78 2.9 CALM 0 0 0 0 1009.2 - 0.0
14/06:30pm 28.1 32.3 23.1 74 3.4 SE 6 7 3 4 1008.9 - 0.0
14/06:00pm 28.7 34.3 23.6 74 3.5 CALM 0 2 0 1 1008.6 1008.2 0.0
14/05:30pm 29.1 33.3 23.4 71 3.9 S 7 9 4 5 1008.2 - 0.0
14/05:00pm 29.7 33.1 21.7 62 5.4 S 6 7 3 4 1007.9 - 0.0
14/04:30pm 30.4 33.6 21.7 59 5.9 S 7 9 4 5 1007.7 - 0.0
14/04:00pm 30.8 33.9 21.1 56 6.5 S 6 9 3 5 1007.6 - 0.0
14/03:30pm 31.0 32.6 19.2 49 7.7 SSE 9 13 5 7 1007.6 - 0.0
14/03:00pm 31.1 34.1 22.6 60 5.8 SE 11 17 6 9 1007.6 1007.3 0.0
14/02:30pm 31.3 34.5 22.4 59 6.1 S 9 13 5 7 1007.9 - 0.0
14/02:00pm 29.3 32.0 20.7 59 5.7 SW 7 11 4 6 1008.2 - 0.0
14/01:30pm 31.1 35.4 22.6 60 5.8 E 4 11 2 6 1008.8 - 0.0
14/01:00pm 31.8 34.3 22.5 58 6.4 N 13 19 7 10 1009.1 - 0.0
14/12:30pm 31.4 34.0 22.0 57 6.4 NNW 11 20 6 11 1009.5 - 0.0
14/12:00pm 31.2 34.8 23.1 62 5.6 NW 9 15 5 8 1009.8 1009.4 0.0
14/11:30am 33.0 35.8 19.7 45 8.8 E 4 13 2 7 1010.0 - 0.0
14/11:00am 32.5 34.7 19.3 45 8.7 SE 6 13 3 7 1010.4 - 0.0
14/10:30am 32.0 34.3 19.9 48 8.0 ENE 7 15 4 8 1010.7 - 0.0
14/10:00am 31.4 34.7 21.5 55 6.7 NNE 6 11 3 6 1010.7 - 0.0
14/09:30am 30.3 34.3 22.7 64 5.2 N 6 9 3 5 1010.5 - 0.0
14/09:00am 28.9 35.1 24.6 77 3.0 CALM 0 0 0 0 1010.5 1010.1 0.0
14/08:30am 26.9 33.5 25.2 90 1.2 CALM 0 0 0 0 1010.5 - 0.0
14/08:00am 25.8 32.1 24.8 94 0.7 CALM 0 0 0 0 1010.4 - 0.0
14/07:30am 24.6 30.3 23.7 95 0.6 CALM 0 0 0 0 1010.2 - 0.0
14/07:00am 23.7 28.9 22.8 95 0.6 CALM 0 0 0 0 1009.8 - 0.0
14/06:30am 23.4 28.5 22.7 96 0.5 CALM 0 0 0 0 1009.4 - 0.0
14/06:00am 23.8 29.1 23.1 96 0.5 CALM 0 0 0 0 1009.1 1008.7 0.0
14/05:30am 24.0 29.4 23.3 96 0.5 CALM 0 0 0 0 1008.9 - 0.0
14/05:00am 23.7 29.0 23.0 96 0.5 CALM 0 0 0 0 1008.7 - 0.0
14/04:30am 22.9 27.7 22.1 95 0.5 CALM 0 0 0 0 1008.7 - 0.0
14/04:00am 23.0 27.9 22.3 96 0.5 CALM 0 0 0 0 1008.7 - 0.0
14/03:30am 23.2 28.2 22.5 96 0.5 CALM 0 0 0 0 1008.5 - 0.0
14/03:00am 23.3 28.4 22.6 96 0.5 CALM 0 0 0 0 1008.1 1007.8 0.0
14/02:30am 23.5 28.6 22.6 95 0.6 CALM 0 0 0 0 1008.3 - 0.0
14/02:00am 23.5 28.6 22.6 95 0.6 CALM 0 0 0 0 1008.5 - 0.0
14/01:30am 23.7 28.9 22.8 95 0.6 CALM 0 0 0 0 1008.7 - 0.0
14/01:00am 23.8 29.0 22.9 95 0.6 CALM 0 0 0 0 1009.0 - 0.0
14/12:30am 24.0 29.3 23.0 94 0.7 CALM 0 0 0 0 1009.3 - 0.0
14/12:00am 24.2 29.5 23.0 93 0.8 CALM 0 0 0 0 1009.4 1009.0 0.0
 
Date/Time
CST
Temp
°C
App
Temp
°C
Dew
Point
Rel
Hum
%
Delta-T
°C
Wind Press
QNH
hPa
Press
MSL
hPa
Rain
since 9 am
mm
Dir
 
Spd
km/h
Gust
km/h
Spd
kts
Gust
kts
13/11:30pm 24.4 29.8 23.2 93 0.8 CALM 0 0 0 0 1009.5 - 0.0
13/11:00pm 24.6 29.9 23.1 91 1.0 CALM 0 0 0 0 1009.5 - 0.0
13/10:30pm 25.0 30.5 23.4 91 1.1 CALM 0 0 0 0 1009.5 - 0.0
13/10:00pm 25.0 30.5 23.4 91 1.1 CALM 0 0 0 0 1009.7 - 0.0
13/09:30pm 25.1 30.7 23.5 91 1.1 CALM 0 0 0 0 1009.6 - 0.0
13/09:00pm 25.4 31.0 23.5 89 1.3 CALM 0 0 0 0 1009.7 1009.3 0.0
13/08:30pm 25.5 30.9 23.3 88 1.5 CALM 0 0 0 0 1009.6 - 0.0

Other Formats:

Comma delimited format used in spreadsheet applications
http://www.bom.gov.au/fwo/IDD60801/IDD60801.94150.axf

JavaScript Object Notation format (JSON) in row-major order
http://www.bom.gov.au/fwo/IDD60801/IDD60801.94150.json